This is the latest recevied weather packets stored in our database for station/object IW0REF-8. If no packets are shown the sender has not sent any weather packets the latest 1 day(s).
| Time | Temp. | Humidity | Pressure | Rain* | Wind** | Luminosity | Snow |
|---|---|---|---|---|---|---|---|
| 1778082295 | 17.22° C | 53% | 1018.9 hPa | - | - | - | - |
| 1778081395 | 17.78° C | 51% | 1018.3 hPa | - | - | - | - |
| 1778080495 | 17.78° C | 49% | 1018 hPa | - | - | - | - |
| 1778074194 | 20° C | 38% | 1016.5 hPa | - | - | - | - |
| 1778073294 | 20° C | 39% | 1017 hPa | - | - | - | - |
| 1778072394 | 18.89° C | 39% | 1017.2 hPa | - | - | - | - |
| 1778071494 | 18.89° C | 42% | 1017.9 hPa | - | - | - | - |
| 1778066093 | 20° C | 37% | 1016.9 hPa | - | - | - | - |
| 1778065193 | 19.44° C | 35% | 1016.6 hPa | - | - | - | - |
| 1778064293 | 18.89° C | 38% | 1017 hPa | - | - | - | - |
| 1778063393 | 20° C | 35% | 1016.8 hPa | - | - | - | - |
| 1778062493 | 20.56° C | 36% | 1017 hPa | - | - | - | - |
| 1778058892 | 20° C | 41% | 1017.9 hPa | - | - | - | - |
| 1778057992 | 18.89° C | 41% | 1017.8 hPa | - | - | - | - |
| 1778057092 | 18.33° C | 42% | 1017.8 hPa | - | - | - | - |
| 1778056192 | 19.44° C | 42% | 1017.6 hPa | - | - | - | - |
| 1778055292 | 20° C | 46% | 1018.2 hPa | - | - | - | - |
| 1778054392 | 19.44° C | 45% | 1017.8 hPa | - | - | - | - |
| 1778053492 | 17.22° C | 56% | 1019.3 hPa | - | - | - | - |
| 1778048086 | 15.56° C | 51% | 1018.9 hPa | - | - | - | - |
| 1778046286 | 14.44° C | 55% | 1019.6 hPa | - | - | - | - |
| 1778044486 | 14.44° C | 52% | 1018.9 hPa | - | - | - | - |
| 1778043586 | 15° C | 50% | 1018.7 hPa | - | - | - | - |
| 1778042686 | 14.44° C | 51% | 1018.7 hPa | - | - | - | - |
| 1778041786 | 13.89° C | 56% | 1019.4 hPa | - | - | - | - |
* Rain since midnight (hover to see other rain measurements)
** Current wind speed in m/s (hover to see current wind gust speed)